Anawalt, West Virginia
Current Conditions -  °F | °C
As of 8:52 PM on Sunday 21 Dec 2014 (Local Time) from KBLF Reporting Station
Few Clouds Few Clouds  
Wind Chill: 33°   Ceiling: Unl
Heat Index: 38°   Visibility: 10mi
Dew Point: 31°   Wind: 6mph
Humidity: 76%   Direction: 160°SSE
Pressure: 30.13"   Gusts: 17mph
Location:  37.34°N, 81.44°W
Report Text: KBLF 220152Z AUTO 16005G15KT 10SM FEW014 03/M01 A3013 RMK AO2 SLP213 T00331006
Loading
Personal Weather Stations






























Interactive Weather Map New forecast layout! Learn more

10-Day Weather Forecast

Advertisements
Track Severe Weather on mobile